sensor_id;sensor_type;location;lat;lon;timestamp;P1;durP1;ratioP1;P2;durP2;ratioP2
1218;SDS011;599;51.494;6.670;2022-07-23T00:01:36;14.80;;;8.77;;
1218;SDS011;599;51.494;6.670;2022-07-23T00:04:01;13.03;;;8.73;;
1218;SDS011;599;51.494;6.670;2022-07-23T00:06:27;14.80;;;7.87;;
1218;SDS011;599;51.494;6.670;2022-07-23T00:08:53;10.17;;;9.00;;
1218;SDS011;599;51.494;6.670;2022-07-23T00:11:19;13.50;;;9.23;;
1218;SDS011;599;51.494;6.670;2022-07-23T00:13:47;8.85;;;7.72;;
1218;SDS011;599;51.494;6.670;2022-07-23T00:16:13;16.67;;;9.50;;
1218;SDS011;599;51.494;6.670;2022-07-23T00:18:39;11.32;;;7.32;;
1218;SDS011;599;51.494;6.670;2022-07-23T00:21:05;12.63;;;8.13;;
1218;SDS011;599;51.494;6.670;2022-07-23T00:23:31;8.95;;;8.05;;
1218;SDS011;599;51.494;6.670;2022-07-23T00:25:57;15.00;;;8.00;;
1218;SDS011;599;51.494;6.670;2022-07-23T00:28:23;12.50;;;8.43;;
1218;SDS011;599;51.494;6.670;2022-07-23T00:30:49;8.90;;;8.00;;
1218;SDS011;599;51.494;6.670;2022-07-23T00:33:15;14.90;;;8.23;;
1218;SDS011;599;51.494;6.670;2022-07-23T00:35:41;10.63;;;8.17;;
1218;SDS011;599;51.494;6.670;2022-07-23T00:38:08;9.88;;;7.70;;
1218;SDS011;599;51.494;6.670;2022-07-23T00:40:36;10.00;;;9.00;;
1218;SDS011;599;51.494;6.670;2022-07-23T00:43:03;8.52;;;7.43;;
1218;SDS011;599;51.494;6.670;2022-07-23T00:45:30;12.95;;;8.02;;
1218;SDS011;599;51.494;6.670;2022-07-23T00:47:56;11.63;;;8.80;;
1218;SDS011;599;51.494;6.670;2022-07-23T00:50:23;11.95;;;7.85;;
1218;SDS011;599;51.494;6.670;2022-07-23T00:52:49;13.57;;;8.88;;
1218;SDS011;599;51.494;6.670;2022-07-23T00:55:15;9.38;;;7.25;;
1218;SDS011;599;51.494;6.670;2022-07-23T00:57:41;9.37;;;7.40;;
1218;SDS011;599;51.494;6.670;2022-07-23T01:00:09;17.35;;;8.60;;
1218;SDS011;599;51.494;6.670;2022-07-23T01:02:39;9.25;;;7.30;;
1218;SDS011;599;51.494;6.670;2022-07-23T01:05:06;11.73;;;8.60;;
1218;SDS011;599;51.494;6.670;2022-07-23T01:07:33;17.85;;;9.18;;
1218;SDS011;599;51.494;6.670;2022-07-23T01:09:59;13.10;;;10.20;;
1218;SDS011;599;51.494;6.670;2022-07-23T01:12:25;10.73;;;8.38;;
1218;SDS011;599;51.494;6.670;2022-07-23T01:14:55;10.50;;;8.35;;
1218;SDS011;599;51.494;6.670;2022-07-23T01:17:24;10.70;;;8.25;;
1218;SDS011;599;51.494;6.670;2022-07-23T01:19:50;12.63;;;8.75;;
1218;SDS011;599;51.494;6.670;2022-07-23T01:22:17;17.30;;;9.75;;
1218;SDS011;599;51.494;6.670;2022-07-23T01:24:46;13.98;;;8.85;;
1218;SDS011;599;51.494;6.670;2022-07-23T01:27:13;11.07;;;8.45;;
1218;SDS011;599;51.494;6.670;2022-07-23T01:29:39;12.82;;;10.00;;
1218;SDS011;599;51.494;6.670;2022-07-23T01:32:16;14.93;;;10.52;;
1218;SDS011;599;51.494;6.670;2022-07-23T01:34:42;12.57;;;9.30;;
1218;SDS011;599;51.494;6.670;2022-07-23T01:37:08;10.65;;;9.60;;
1218;SDS011;599;51.494;6.670;2022-07-23T01:39:34;14.13;;;9.00;;
1218;SDS011;599;51.494;6.670;2022-07-23T01:42:00;11.43;;;9.30;;
1218;SDS011;599;51.494;6.670;2022-07-23T01:44:27;10.88;;;9.77;;
1218;SDS011;599;51.494;6.670;2022-07-23T01:46:53;11.40;;;9.20;;
1218;SDS011;599;51.494;6.670;2022-07-23T01:49:20;11.30;;;9.75;;
1218;SDS011;599;51.494;6.670;2022-07-23T01:51:58;13.50;;;10.43;;
1218;SDS011;599;51.494;6.670;2022-07-23T01:54:39;14.07;;;9.98;;
1218;SDS011;599;51.494;6.670;2022-07-23T01:57:06;12.65;;;10.23;;
1218;SDS011;599;51.494;6.670;2022-07-23T01:59:33;10.95;;;9.80;;
1218;SDS011;599;51.494;6.670;2022-07-23T02:02:00;14.40;;;10.73;;
1218;SDS011;599;51.494;6.670;2022-07-23T02:04:27;10.75;;;9.45;;
1218;SDS011;599;51.494;6.670;2022-07-23T02:06:54;13.90;;;10.98;;
1218;SDS011;599;51.494;6.670;2022-07-23T02:09:20;10.33;;;9.30;;
1218;SDS011;599;51.494;6.670;2022-07-23T02:11:46;11.73;;;9.77;;
1218;SDS011;599;51.494;6.670;2022-07-23T02:14:12;13.40;;;9.60;;
1218;SDS011;599;51.494;6.670;2022-07-23T02:16:38;16.45;;;11.13;;
1218;SDS011;599;51.494;6.670;2022-07-23T02:19:04;11.63;;;9.93;;
1218;SDS011;599;51.494;6.670;2022-07-23T02:21:30;19.40;;;11.73;;
1218;SDS011;599;51.494;6.670;2022-07-23T02:23:56;15.10;;;11.07;;
1218;SDS011;599;51.494;6.670;2022-07-23T02:26:22;16.95;;;11.07;;
1218;SDS011;599;51.494;6.670;2022-07-23T02:28:51;11.90;;;10.68;;
1218;SDS011;599;51.494;6.670;2022-07-23T02:31:18;11.23;;;10.13;;
1218;SDS011;599;51.494;6.670;2022-07-23T02:33:45;11.60;;;10.45;;
1218;SDS011;599;51.494;6.670;2022-07-23T02:36:10;14.80;;;11.90;;
1218;SDS011;599;51.494;6.670;2022-07-23T02:38:36;13.37;;;11.73;;
1218;SDS011;599;51.494;6.670;2022-07-23T02:41:03;15.50;;;12.00;;
1218;SDS011;599;51.494;6.670;2022-07-23T02:43:30;13.13;;;10.55;;
1218;SDS011;599;51.494;6.670;2022-07-23T02:45:56;14.17;;;12.33;;
1218;SDS011;599;51.494;6.670;2022-07-23T02:48:23;17.45;;;11.30;;
1218;SDS011;599;51.494;6.670;2022-07-23T02:50:48;17.30;;;12.50;;
1218;SDS011;599;51.494;6.670;2022-07-23T02:53:20;13.75;;;12.35;;
1218;SDS011;599;51.494;6.670;2022-07-23T02:55:47;11.98;;;10.73;;
1218;SDS011;599;51.494;6.670;2022-07-23T02:58:13;16.57;;;13.03;;
1218;SDS011;599;51.494;6.670;2022-07-23T03:00:39;13.60;;;11.67;;
1218;SDS011;599;51.494;6.670;2022-07-23T03:03:05;12.27;;;10.85;;
1218;SDS011;599;51.494;6.670;2022-07-23T03:05:31;13.77;;;10.50;;
1218;SDS011;599;51.494;6.670;2022-07-23T03:07:58;11.52;;;10.30;;
1218;SDS011;599;51.494;6.670;2022-07-23T03:10:23;16.70;;;12.70;;
1218;SDS011;599;51.494;6.670;2022-07-23T03:12:49;13.87;;;12.40;;
1218;SDS011;599;51.494;6.670;2022-07-23T03:15:16;14.05;;;12.32;;
1218;SDS011;599;51.494;6.670;2022-07-23T03:17:42;14.70;;;11.38;;
1218;SDS011;599;51.494;6.670;2022-07-23T03:20:09;16.50;;;12.50;;
1218;SDS011;599;51.494;6.670;2022-07-23T03:22:35;15.73;;;11.90;;
1218;SDS011;599;51.494;6.670;2022-07-23T03:25:02;15.63;;;13.10;;
1218;SDS011;599;51.494;6.670;2022-07-23T03:27:33;12.48;;;11.18;;
1218;SDS011;599;51.494;6.670;2022-07-23T03:29:59;18.53;;;12.50;;
1218;SDS011;599;51.494;6.670;2022-07-23T03:32:25;17.15;;;13.25;;
1218;SDS011;599;51.494;6.670;2022-07-23T03:34:52;15.48;;;12.55;;
1218;SDS011;599;51.494;6.670;2022-07-23T03:37:19;18.10;;;12.43;;
1218;SDS011;599;51.494;6.670;2022-07-23T03:39:46;14.18;;;12.68;;
1218;SDS011;599;51.494;6.670;2022-07-23T03:42:12;18.50;;;13.95;;
1218;SDS011;599;51.494;6.670;2022-07-23T03:44:38;17.30;;;12.07;;
1218;SDS011;599;51.494;6.670;2022-07-23T03:47:04;16.13;;;13.77;;
1218;SDS011;599;51.494;6.670;2022-07-23T03:49:31;20.17;;;13.73;;
1218;SDS011;599;51.494;6.670;2022-07-23T03:51:58;13.80;;;12.40;;
1218;SDS011;599;51.494;6.670;2022-07-23T03:54:24;15.18;;;13.00;;
1218;SDS011;599;51.494;6.670;2022-07-23T03:56:50;15.20;;;13.60;;
1218;SDS011;599;51.494;6.670;2022-07-23T03:59:16;15.90;;;13.70;;
1218;SDS011;599;51.494;6.670;2022-07-23T04:01:43;20.50;;;14.10;;
1218;SDS011;599;51.494;6.670;2022-07-23T04:04:10;16.73;;;14.32;;
1218;SDS011;599;51.494;6.670;2022-07-23T04:06:37;17.52;;;14.50;;
1218;SDS011;599;51.494;6.670;2022-07-23T04:09:03;16.63;;;13.10;;
1218;SDS011;599;51.494;6.670;2022-07-23T04:11:30;16.85;;;13.98;;
1218;SDS011;599;51.494;6.670;2022-07-23T04:13:56;18.20;;;15.73;;
1218;SDS011;599;51.494;6.670;2022-07-23T04:16:23;15.25;;;13.63;;
1218;SDS011;599;51.494;6.670;2022-07-23T04:18:49;16.70;;;14.30;;
1218;SDS011;599;51.494;6.670;2022-07-23T04:21:19;19.33;;;14.90;;
1218;SDS011;599;51.494;6.670;2022-07-23T04:23:46;16.33;;;14.63;;
1218;SDS011;599;51.494;6.670;2022-07-23T04:26:13;19.33;;;14.32;;
1218;SDS011;599;51.494;6.670;2022-07-23T04:28:39;21.03;;;15.07;;
1218;SDS011;599;51.494;6.670;2022-07-23T04:31:04;16.73;;;13.70;;
1218;SDS011;599;51.494;6.670;2022-07-23T04:33:32;21.60;;;13.93;;
1218;SDS011;599;51.494;6.670;2022-07-23T04:36:01;16.95;;;13.80;;
1218;SDS011;599;51.494;6.670;2022-07-23T04:38:27;16.55;;;13.95;;
1218;SDS011;599;51.494;6.670;2022-07-23T04:40:58;18.15;;;14.70;;
1218;SDS011;599;51.494;6.670;2022-07-23T04:43:24;18.63;;;14.43;;
1218;SDS011;599;51.494;6.670;2022-07-23T04:45:50;19.90;;;15.43;;
1218;SDS011;599;51.494;6.670;2022-07-23T04:48:16;18.98;;;15.93;;
1218;SDS011;599;51.494;6.670;2022-07-23T04:50:43;16.55;;;14.95;;
1218;SDS011;599;51.494;6.670;2022-07-23T04:53:21;15.98;;;14.27;;
1218;SDS011;599;51.494;6.670;2022-07-23T04:55:49;16.42;;;14.70;;
1218;SDS011;599;51.494;6.670;2022-07-23T04:58:15;19.27;;;14.43;;
1218;SDS011;599;51.494;6.670;2022-07-23T05:00:41;18.60;;;14.48;;
1218;SDS011;599;51.494;6.670;2022-07-23T05:03:07;16.93;;;15.13;;
1218;SDS011;599;51.494;6.670;2022-07-23T05:05:33;18.40;;;16.20;;
1218;SDS011;599;51.494;6.670;2022-07-23T05:08:07;17.70;;;15.30;;
1218;SDS011;599;51.494;6.670;2022-07-23T05:10:35;18.15;;;16.27;;
1218;SDS011;599;51.494;6.670;2022-07-23T05:13:02;20.25;;;15.77;;
1218;SDS011;599;51.494;6.670;2022-07-23T05:15:28;16.53;;;14.87;;
1218;SDS011;599;51.494;6.670;2022-07-23T05:17:54;16.63;;;14.77;;
1218;SDS011;599;51.494;6.670;2022-07-23T05:20:20;18.30;;;16.38;;
1218;SDS011;599;51.494;6.670;2022-07-23T05:22:46;16.10;;;14.50;;
1218;SDS011;599;51.494;6.670;2022-07-23T05:25:12;19.20;;;16.00;;
1218;SDS011;599;51.494;6.670;2022-07-23T05:27:39;16.77;;;15.15;;
1218;SDS011;599;51.494;6.670;2022-07-23T05:30:06;17.00;;;15.30;;
1218;SDS011;599;51.494;6.670;2022-07-23T05:32:36;25.02;;;15.20;;
1218;SDS011;599;51.494;6.670;2022-07-23T05:35:14;18.45;;;16.63;;
1218;SDS011;599;51.494;6.670;2022-07-23T05:37:46;17.70;;;15.60;;
1218;SDS011;599;51.494;6.670;2022-07-23T05:40:12;18.57;;;15.90;;
1218;SDS011;599;51.494;6.670;2022-07-23T05:42:39;17.13;;;14.73;;
1218;SDS011;599;51.494;6.670;2022-07-23T05:45:08;21.85;;;14.85;;
1218;SDS011;599;51.494;6.670;2022-07-23T05:50:13;14.52;;;12.93;;
1218;SDS011;599;51.494;6.670;2022-07-23T05:52:46;16.05;;;14.38;;
1218;SDS011;599;51.494;6.670;2022-07-23T05:55:30;17.40;;;14.38;;
1218;SDS011;599;51.494;6.670;2022-07-23T05:57:58;22.70;;;13.93;;
1218;SDS011;599;51.494;6.670;2022-07-23T06:00:30;16.48;;;14.18;;
1218;SDS011;599;51.494;6.670;2022-07-23T06:02:57;15.98;;;14.38;;
1218;SDS011;599;51.494;6.670;2022-07-23T06:05:24;14.00;;;12.70;;
1218;SDS011;599;51.494;6.670;2022-07-23T06:07:52;15.57;;;12.55;;
1218;SDS011;599;51.494;6.670;2022-07-23T06:10:18;15.50;;;13.88;;
1218;SDS011;599;51.494;6.670;2022-07-23T06:12:44;14.98;;;13.35;;
1218;SDS011;599;51.494;6.670;2022-07-23T06:15:11;17.60;;;12.55;;
1218;SDS011;599;51.494;6.670;2022-07-23T06:17:38;15.02;;;13.40;;
1218;SDS011;599;51.494;6.670;2022-07-23T06:20:05;14.82;;;13.48;;
1218;SDS011;599;51.494;6.670;2022-07-23T06:22:36;15.48;;;12.30;;
1218;SDS011;599;51.494;6.670;2022-07-23T06:25:03;13.73;;;12.45;;
1218;SDS011;599;51.494;6.670;2022-07-23T06:27:30;15.32;;;13.55;;
1218;SDS011;599;51.494;6.670;2022-07-23T06:29:55;19.50;;;13.73;;
1218;SDS011;599;51.494;6.670;2022-07-23T06:32:21;20.38;;;13.98;;
1218;SDS011;599;51.494;6.670;2022-07-23T06:34:47;17.87;;;14.93;;
1218;SDS011;599;51.494;6.670;2022-07-23T06:37:13;17.40;;;14.90;;
1218;SDS011;599;51.494;6.670;2022-07-23T06:39:39;15.77;;;12.87;;
1218;SDS011;599;51.494;6.670;2022-07-23T06:42:05;17.37;;;15.53;;
1218;SDS011;599;51.494;6.670;2022-07-23T06:44:37;15.10;;;13.50;;
1218;SDS011;599;51.494;6.670;2022-07-23T06:47:02;16.20;;;14.40;;
1218;SDS011;599;51.494;6.670;2022-07-23T06:49:29;17.90;;;14.98;;
1218;SDS011;599;51.494;6.670;2022-07-23T06:51:56;14.18;;;12.85;;
1218;SDS011;599;51.494;6.670;2022-07-23T06:54:22;14.65;;;13.00;;
1218;SDS011;599;51.494;6.670;2022-07-23T06:56:48;15.70;;;12.87;;
1218;SDS011;599;51.494;6.670;2022-07-23T06:59:14;17.17;;;12.20;;
1218;SDS011;599;51.494;6.670;2022-07-23T07:01:41;13.07;;;11.85;;
1218;SDS011;599;51.494;6.670;2022-07-23T07:04:07;14.40;;;11.68;;
1218;SDS011;599;51.494;6.670;2022-07-23T07:06:33;14.00;;;12.17;;
1218;SDS011;599;51.494;6.670;2022-07-23T07:09:00;11.90;;;10.73;;
1218;SDS011;599;51.494;6.670;2022-07-23T07:11:26;14.37;;;11.23;;
1218;SDS011;599;51.494;6.670;2022-07-23T07:13:52;11.33;;;10.23;;
1218;SDS011;599;51.494;6.670;2022-07-23T07:16:18;13.10;;;11.05;;
1218;SDS011;599;51.494;6.670;2022-07-23T07:18:44;16.63;;;10.00;;
1218;SDS011;599;51.494;6.670;2022-07-23T07:21:10;13.37;;;9.90;;
1218;SDS011;599;51.494;6.670;2022-07-23T07:23:35;10.50;;;8.80;;
1218;SDS011;599;51.494;6.670;2022-07-23T07:26:01;14.23;;;10.17;;
1218;SDS011;599;51.494;6.670;2022-07-23T07:28:27;13.30;;;9.50;;
1218;SDS011;599;51.494;6.670;2022-07-23T07:30:53;10.90;;;7.97;;
1218;SDS011;599;51.494;6.670;2022-07-23T07:33:19;12.15;;;7.75;;
1218;SDS011;599;51.494;6.670;2022-07-23T07:35:46;8.68;;;7.78;;
1218;SDS011;599;51.494;6.670;2022-07-23T07:38:12;8.48;;;7.65;;
1218;SDS011;599;51.494;6.670;2022-07-23T07:40:38;8.07;;;7.30;;
1218;SDS011;599;51.494;6.670;2022-07-23T07:43:04;10.87;;;8.40;;
1218;SDS011;599;51.494;6.670;2022-07-23T07:45:30;7.90;;;7.10;;
1218;SDS011;599;51.494;6.670;2022-07-23T07:47:57;9.20;;;8.17;;
1218;SDS011;599;51.494;6.670;2022-07-23T07:50:23;11.00;;;7.60;;
1218;SDS011;599;51.494;6.670;2022-07-23T07:52:49;9.23;;;7.53;;
1218;SDS011;599;51.494;6.670;2022-07-23T07:55:15;8.52;;;7.63;;
1218;SDS011;599;51.494;6.670;2022-07-23T07:57:41;10.73;;;8.47;;
1218;SDS011;599;51.494;6.670;2022-07-23T08:00:08;9.83;;;8.83;;
1218;SDS011;599;51.494;6.670;2022-07-23T08:02:46;10.13;;;8.02;;
1218;SDS011;599;51.494;6.670;2022-07-23T08:05:18;10.10;;;7.00;;
1218;SDS011;599;51.494;6.670;2022-07-23T08:07:49;10.65;;;8.00;;
1218;SDS011;599;51.494;6.670;2022-07-23T08:10:15;11.07;;;8.03;;
1218;SDS011;599;51.494;6.670;2022-07-23T08:12:42;10.00;;;6.80;;
1218;SDS011;599;51.494;6.670;2022-07-23T08:15:17;15.00;;;7.60;;
1218;SDS011;599;51.494;6.670;2022-07-23T08:17:45;13.57;;;8.20;;
1218;SDS011;599;51.494;6.670;2022-07-23T08:20:13;10.77;;;6.87;;
1218;SDS011;599;51.494;6.670;2022-07-23T08:22:51;10.23;;;6.07;;
1218;SDS011;599;51.494;6.670;2022-07-23T08:25:29;8.30;;;6.87;;
1218;SDS011;599;51.494;6.670;2022-07-23T08:28:05;8.03;;;5.30;;
1218;SDS011;599;51.494;6.670;2022-07-23T08:30:36;8.10;;;5.00;;
1218;SDS011;599;51.494;6.670;2022-07-23T08:33:05;7.23;;;5.20;;
1218;SDS011;599;51.494;6.670;2022-07-23T08:35:40;9.67;;;5.40;;
1218;SDS011;599;51.494;6.670;2022-07-23T08:38:15;9.13;;;5.97;;
1218;SDS011;599;51.494;6.670;2022-07-23T08:40:44;7.07;;;5.40;;
1218;SDS011;599;51.494;6.670;2022-07-23T08:43:23;5.43;;;4.67;;
1218;SDS011;599;51.494;6.670;2022-07-23T08:45:52;5.87;;;5.27;;
1218;SDS011;599;51.494;6.670;2022-07-23T08:48:24;8.40;;;4.73;;
1218;SDS011;599;51.494;6.670;2022-07-23T08:50:57;8.50;;;5.07;;
1218;SDS011;599;51.494;6.670;2022-07-23T08:53:26;9.10;;;5.10;;
1218;SDS011;599;51.494;6.670;2022-07-23T08:55:54;6.07;;;4.40;;
1218;SDS011;599;51.494;6.670;2022-07-23T08:58:22;4.93;;;4.43;;
1218;SDS011;599;51.494;6.670;2022-07-23T09:00:49;12.07;;;5.30;;
1218;SDS011;599;51.494;6.670;2022-07-23T09:03:17;11.70;;;5.70;;
1218;SDS011;599;51.494;6.670;2022-07-23T09:05:46;5.37;;;3.70;;
1218;SDS011;599;51.494;6.670;2022-07-23T09:08:13;5.30;;;4.40;;
1218;SDS011;599;51.494;6.670;2022-07-23T09:14:08;7.60;;;4.63;;
1218;SDS011;599;51.494;6.670;2022-07-23T09:16:34;8.87;;;5.20;;
1218;SDS011;599;51.494;6.670;2022-07-23T09:21:43;6.77;;;5.10;;
1218;SDS011;599;51.494;6.670;2022-07-23T09:24:15;5.80;;;4.80;;
1218;SDS011;599;51.494;6.670;2022-07-23T09:29:11;5.10;;;4.33;;
1218;SDS011;599;51.494;6.670;2022-07-23T09:31:55;6.00;;;4.77;;
1218;SDS011;599;51.494;6.670;2022-07-23T09:34:29;9.57;;;3.77;;
1218;SDS011;599;51.494;6.670;2022-07-23T09:37:14;7.17;;;4.70;;
1218;SDS011;599;51.494;6.670;2022-07-23T09:39:43;5.50;;;4.50;;
1218;SDS011;599;51.494;6.670;2022-07-23T09:42:18;5.40;;;4.70;;
1218;SDS011;599;51.494;6.670;2022-07-23T09:44:52;5.27;;;4.40;;
1218;SDS011;599;51.494;6.670;2022-07-23T09:47:21;7.77;;;4.93;;
1218;SDS011;599;51.494;6.670;2022-07-23T09:52:28;5.00;;;3.97;;
1218;SDS011;599;51.494;6.670;2022-07-23T09:54:59;6.27;;;4.70;;
1218;SDS011;599;51.494;6.670;2022-07-23T09:57:28;5.00;;;3.80;;
1218;SDS011;599;51.494;6.670;2022-07-23T09:59:58;8.53;;;4.50;;
1218;SDS011;599;51.494;6.670;2022-07-23T10:02:31;7.23;;;4.10;;
1218;SDS011;599;51.494;6.670;2022-07-23T10:05:17;4.23;;;3.70;;
1218;SDS011;599;51.494;6.670;2022-07-23T10:08:04;6.03;;;3.63;;
1218;SDS011;599;51.494;6.670;2022-07-23T10:10:54;7.00;;;3.60;;
1218;SDS011;599;51.494;6.670;2022-07-23T10:13:40;7.43;;;4.57;;
1218;SDS011;599;51.494;6.670;2022-07-23T10:16:16;5.00;;;2.70;;
1218;SDS011;599;51.494;6.670;2022-07-23T10:18:42;5.27;;;2.80;;
1218;SDS011;599;51.494;6.670;2022-07-23T10:21:08;4.33;;;2.67;;
1218;SDS011;599;51.494;6.670;2022-07-23T10:26:17;6.10;;;2.87;;
1218;SDS011;599;51.494;6.670;2022-07-23T10:29:02;8.97;;;3.70;;
1218;SDS011;599;51.494;6.670;2022-07-23T10:32:02;8.70;;;3.10;;
1218;SDS011;599;51.494;6.670;2022-07-23T10:34:49;8.50;;;2.87;;
1218;SDS011;599;51.494;6.670;2022-07-23T10:37:37;5.70;;;3.67;;
1218;SDS011;599;51.494;6.670;2022-07-23T10:40:11;4.50;;;3.70;;
1218;SDS011;599;51.494;6.670;2022-07-23T10:42:39;4.70;;;2.77;;
1218;SDS011;599;51.494;6.670;2022-07-23T10:45:27;5.40;;;4.00;;
1218;SDS011;599;51.494;6.670;2022-07-23T10:48:18;2.90;;;2.40;;
1218;SDS011;599;51.494;6.670;2022-07-23T10:59:23;3.10;;;2.40;;
1218;SDS011;599;51.494;6.670;2022-07-23T11:01:49;5.07;;;3.90;;
1218;SDS011;599;51.494;6.670;2022-07-23T11:04:15;6.43;;;3.47;;
1218;SDS011;599;51.494;6.670;2022-07-23T11:17:36;6.63;;;2.97;;
1218;SDS011;599;51.494;6.670;2022-07-23T11:20:23;4.90;;;2.00;;
1218;SDS011;599;51.494;6.670;2022-07-23T11:22:54;3.40;;;2.60;;
1218;SDS011;599;51.494;6.670;2022-07-23T11:27:53;2.77;;;2.13;;
1218;SDS011;599;51.494;6.670;2022-07-23T11:32:51;3.60;;;2.53;;
1218;SDS011;599;51.494;6.670;2022-07-23T11:35:23;4.60;;;2.73;;
1218;SDS011;599;51.494;6.670;2022-07-23T11:37:53;6.70;;;2.33;;
1218;SDS011;599;51.494;6.670;2022-07-23T11:40:28;3.60;;;1.83;;
1218;SDS011;599;51.494;6.670;2022-07-23T11:43:01;3.47;;;2.47;;
1218;SDS011;599;51.494;6.670;2022-07-23T11:45:37;7.60;;;2.70;;
1218;SDS011;599;51.494;6.670;2022-07-23T11:48:15;3.00;;;2.30;;
1218;SDS011;599;51.494;6.670;2022-07-23T11:50:43;4.83;;;1.97;;
1218;SDS011;599;51.494;6.670;2022-07-23T11:53:08;5.40;;;2.73;;
1218;SDS011;599;51.494;6.670;2022-07-23T11:55:34;5.53;;;3.00;;
1218;SDS011;599;51.494;6.670;2022-07-23T11:58:00;6.00;;;3.83;;
1218;SDS011;599;51.494;6.670;2022-07-23T12:00:28;6.17;;;2.47;;
1218;SDS011;599;51.494;6.670;2022-07-23T12:02:59;3.90;;;2.07;;
1218;SDS011;599;51.494;6.670;2022-07-23T12:05:29;4.63;;;3.50;;
1218;SDS011;599;51.494;6.670;2022-07-23T12:07:57;6.30;;;3.30;;
1218;SDS011;599;51.494;6.670;2022-07-23T12:10:29;5.77;;;5.23;;
1218;SDS011;599;51.494;6.670;2022-07-23T12:13:04;3.63;;;2.10;;
1218;SDS011;599;51.494;6.670;2022-07-23T12:15:57;2.77;;;2.20;;
1218;SDS011;599;51.494;6.670;2022-07-23T12:18:24;10.87;;;2.60;;
1218;SDS011;599;51.494;6.670;2022-07-23T12:20:52;6.20;;;2.20;;
1218;SDS011;599;51.494;6.670;2022-07-23T12:23:24;4.73;;;2.83;;
1218;SDS011;599;51.494;6.670;2022-07-23T12:25:51;7.23;;;2.00;;
1218;SDS011;599;51.494;6.670;2022-07-23T12:28:20;5.03;;;2.20;;
1218;SDS011;599;51.494;6.670;2022-07-23T12:30:53;3.50;;;2.50;;
1218;SDS011;599;51.494;6.670;2022-07-23T12:35:52;5.53;;;2.30;;
1218;SDS011;599;51.494;6.670;2022-07-23T12:38:22;4.30;;;2.20;;
1218;SDS011;599;51.494;6.670;2022-07-23T12:40:51;7.67;;;2.73;;
1218;SDS011;599;51.494;6.670;2022-07-23T12:43:24;6.03;;;2.63;;
1218;SDS011;599;51.494;6.670;2022-07-23T12:46:17;7.93;;;2.50;;
1218;SDS011;599;51.494;6.670;2022-07-23T12:53:52;4.17;;;2.03;;
1218;SDS011;599;51.494;6.670;2022-07-23T12:56:30;3.47;;;2.20;;
1218;SDS011;599;51.494;6.670;2022-07-23T12:59:06;5.97;;;3.07;;
1218;SDS011;599;51.494;6.670;2022-07-23T13:01:41;4.07;;;2.67;;
1218;SDS011;599;51.494;6.670;2022-07-23T13:09:17;4.40;;;2.87;;
1218;SDS011;599;51.494;6.670;2022-07-23T13:11:49;4.57;;;2.80;;
1218;SDS011;599;51.494;6.670;2022-07-23T13:14:17;5.10;;;3.20;;
1218;SDS011;599;51.494;6.670;2022-07-23T13:16:45;4.37;;;2.50;;
1218;SDS011;599;51.494;6.670;2022-07-23T13:19:12;5.53;;;3.20;;
1218;SDS011;599;51.494;6.670;2022-07-23T13:21:39;7.07;;;2.43;;
1218;SDS011;599;51.494;6.670;2022-07-23T13:24:07;6.17;;;2.57;;
1218;SDS011;599;51.494;6.670;2022-07-23T13:26:34;11.60;;;3.97;;
1218;SDS011;599;51.494;6.670;2022-07-23T13:29:01;6.87;;;3.20;;
1218;SDS011;599;51.494;6.670;2022-07-23T13:31:28;4.57;;;2.90;;
1218;SDS011;599;51.494;6.670;2022-07-23T13:33:54;3.33;;;2.77;;
1218;SDS011;599;51.494;6.670;2022-07-23T13:36:19;4.10;;;3.40;;
1218;SDS011;599;51.494;6.670;2022-07-23T13:38:45;4.30;;;2.60;;
1218;SDS011;599;51.494;6.670;2022-07-23T13:41:11;3.93;;;3.13;;
1218;SDS011;599;51.494;6.670;2022-07-23T13:43:37;3.97;;;2.60;;
1218;SDS011;599;51.494;6.670;2022-07-23T13:46:03;9.20;;;3.00;;
1218;SDS011;599;51.494;6.670;2022-07-23T13:48:29;13.10;;;3.17;;
1218;SDS011;599;51.494;6.670;2022-07-23T13:50:55;11.13;;;4.20;;
1218;SDS011;599;51.494;6.670;2022-07-23T13:53:21;5.50;;;2.87;;
1218;SDS011;599;51.494;6.670;2022-07-23T13:55:50;5.57;;;3.10;;
1218;SDS011;599;51.494;6.670;2022-07-23T13:58:18;3.43;;;2.90;;
1218;SDS011;599;51.494;6.670;2022-07-23T14:00:45;2.60;;;2.40;;
1218;SDS011;599;51.494;6.670;2022-07-23T14:03:15;20.03;;;3.70;;
1218;SDS011;599;51.494;6.670;2022-07-23T14:05:41;6.90;;;3.30;;
1218;SDS011;599;51.494;6.670;2022-07-23T14:08:07;10.67;;;3.73;;
1218;SDS011;599;51.494;6.670;2022-07-23T14:10:35;8.27;;;3.00;;
1218;SDS011;599;51.494;6.670;2022-07-23T14:13:01;10.70;;;3.57;;
1218;SDS011;599;51.494;6.670;2022-07-23T14:15:39;4.97;;;3.00;;
1218;SDS011;599;51.494;6.670;2022-07-23T14:18:05;4.80;;;2.67;;
1218;SDS011;599;51.494;6.670;2022-07-23T14:20:32;3.70;;;2.90;;
1218;SDS011;599;51.494;6.670;2022-07-23T14:22:58;6.03;;;3.10;;
1218;SDS011;599;51.494;6.670;2022-07-23T14:25:25;7.53;;;2.87;;
1218;SDS011;599;51.494;6.670;2022-07-23T14:27:51;13.23;;;3.77;;
1218;SDS011;599;51.494;6.670;2022-07-23T14:30:18;4.70;;;2.70;;
1218;SDS011;599;51.494;6.670;2022-07-23T14:32:44;3.23;;;2.20;;
1218;SDS011;599;51.494;6.670;2022-07-23T14:35:10;3.60;;;2.80;;
1218;SDS011;599;51.494;6.670;2022-07-23T14:37:36;4.40;;;3.20;;
1218;SDS011;599;51.494;6.670;2022-07-23T14:40:04;4.33;;;2.80;;
1218;SDS011;599;51.494;6.670;2022-07-23T14:42:31;2.80;;;2.60;;
1218;SDS011;599;51.494;6.670;2022-07-23T14:44:56;8.40;;;3.60;;
1218;SDS011;599;51.494;6.670;2022-07-23T14:47:22;3.80;;;2.90;;
1218;SDS011;599;51.494;6.670;2022-07-23T14:49:48;4.40;;;3.40;;
1218;SDS011;599;51.494;6.670;2022-07-23T14:52:14;3.60;;;2.80;;
1218;SDS011;599;51.494;6.670;2022-07-23T14:54:40;3.87;;;3.27;;
1218;SDS011;599;51.494;6.670;2022-07-23T14:57:06;7.77;;;3.23;;
1218;SDS011;599;51.494;6.670;2022-07-23T14:59:34;7.77;;;3.40;;
1218;SDS011;599;51.494;6.670;2022-07-23T15:02:00;5.10;;;3.30;;
1218;SDS011;599;51.494;6.670;2022-07-23T15:04:26;3.97;;;3.40;;
1218;SDS011;599;51.494;6.670;2022-07-23T15:06:52;7.67;;;3.90;;
1218;SDS011;599;51.494;6.670;2022-07-23T15:09:18;5.83;;;3.00;;
1218;SDS011;599;51.494;6.670;2022-07-23T15:11:44;7.20;;;3.27;;
1218;SDS011;599;51.494;6.670;2022-07-23T15:14:10;8.17;;;3.57;;
1218;SDS011;599;51.494;6.670;2022-07-23T15:16:36;4.67;;;2.90;;
1218;SDS011;599;51.494;6.670;2022-07-23T15:19:03;3.90;;;2.70;;
1218;SDS011;599;51.494;6.670;2022-07-23T15:21:30;12.53;;;4.43;;
1218;SDS011;599;51.494;6.670;2022-07-23T15:23:56;10.83;;;3.93;;
1218;SDS011;599;51.494;6.670;2022-07-23T15:26:27;3.30;;;2.70;;
1218;SDS011;599;51.494;6.670;2022-07-23T15:28:54;9.27;;;3.77;;
1218;SDS011;599;51.494;6.670;2022-07-23T15:31:21;3.73;;;2.80;;
1218;SDS011;599;51.494;6.670;2022-07-23T15:33:48;8.00;;;3.50;;
1218;SDS011;599;51.494;6.670;2022-07-23T15:36:14;8.30;;;3.53;;
1218;SDS011;599;51.494;6.670;2022-07-23T15:38:44;4.80;;;3.30;;
1218;SDS011;599;51.494;6.670;2022-07-23T15:41:10;6.10;;;3.20;;
1218;SDS011;599;51.494;6.670;2022-07-23T15:43:36;4.87;;;3.20;;
1218;SDS011;599;51.494;6.670;2022-07-23T15:46:04;5.20;;;3.43;;
1218;SDS011;599;51.494;6.670;2022-07-23T15:48:31;3.67;;;3.37;;
1218;SDS011;599;51.494;6.670;2022-07-23T15:51:01;8.70;;;3.73;;
1218;SDS011;599;51.494;6.670;2022-07-23T15:53:27;14.13;;;4.37;;
1218;SDS011;599;51.494;6.670;2022-07-23T15:55:52;4.93;;;3.23;;
1218;SDS011;599;51.494;6.670;2022-07-23T15:58:18;5.60;;;3.37;;
1218;SDS011;599;51.494;6.670;2022-07-23T16:00:44;6.23;;;3.53;;
1218;SDS011;599;51.494;6.670;2022-07-23T16:03:12;5.57;;;2.80;;
1218;SDS011;599;51.494;6.670;2022-07-23T16:05:40;9.77;;;3.70;;
1218;SDS011;599;51.494;6.670;2022-07-23T16:08:06;4.17;;;3.03;;
1218;SDS011;599;51.494;6.670;2022-07-23T16:10:32;7.00;;;3.40;;
1218;SDS011;599;51.494;6.670;2022-07-23T16:12:58;7.17;;;3.80;;
1218;SDS011;599;51.494;6.670;2022-07-23T16:15:24;7.50;;;3.40;;
1218;SDS011;599;51.494;6.670;2022-07-23T16:17:50;8.53;;;4.20;;
1218;SDS011;599;51.494;6.670;2022-07-23T16:20:16;6.50;;;3.13;;